Darstellungsparameter: Aktuell verwendete Einstellungen:
Skalierung der Graphiken ... ?
xyx+y,   Skalierungsfaktor:      Skalierung: Modus: x, Faktor: 1
Darstellungszeitraum ... ?
Vom - - bis: - -   Zeitraum: 01.01.2011 - 31.12.2011
Min/Max/Avg-Anzeige ... ?
Zeige MMA aktuell
Zeige MMA Monat
Zeige MMA alles
Zeige --A aktuell
Zeige --A Monat
Zeige --A alles
Keine MMA-Anzeige
MMA:
Keine MMA-Graphiken
MMA-Basis: 01.01.2011 - 31.12.2011
Quicknavigation für Darstellung... ?
Tage:      1T, 2T, 3T, 5T -1T -2T -3T -5T +1T +2T +3T +5T
Wochen: 1W, 2W, 3W -1W -2W -3W +1W +2W +3W
Monate: 1M, 3M, 6M -1M -3M -6M +1M +3M +6M
Jahre:    1J, 3J, 5J, 10J -1J -3J -5J -10J +1J +3J +5J +10J
Nutze für die Darstellung ... ?
Originaldaten oder ...
Mittelwerte Minima Maxima auf...
Stundenbasis Tagesbasis Wochenbasis
Monatsbasis Jahresbasis      Datenbasis: Mittelwerte auf Tagesbasis
Darstellen als:
Statistik (Auto) Statistik J:M      Darstellung:
Zur Graphik,    zurück zur Übersicht aller Sensoren.
 
Tabellarische Datenbersicht: ?
 
Sensor: Nr:Datum:Temp:Abs-Feuchte:Windchill:Wind:
Aussen-T/F 1 01-01-2011 00:00:00 1.07311 C 4.52 g/m*3 1.07 C 0 km/h
2 02-01-2011 00:00:00 0.8025 C 4.39 g/m*3 0.8 C 0 km/h
3 03-01-2011 00:00:00 -0.9125 C 3.88 g/m*3 -0.91 C 0 km/h
4 04-01-2011 00:00:00 -2.36667 C 3.35 g/m*3 -2.37 C 0 km/h
5 05-01-2011 00:00:00 -3.83583 C 2.66 g/m*3 -3.84 C 0 km/h
6 06-01-2011 00:00:00 3.72667 C 5.49 g/m*3 3.73 C 0 km/h
7 07-01-2011 00:00:00 6.91833 C 6.93 g/m*3 6.92 C 0 km/h
8 08-01-2011 00:00:00 10.5675 C 7.09 g/m*3 10.57 C 0 km/h
9 09-01-2011 00:00:00 5.08655 C 5.84 g/m*3 5.09 C 0 km/h
10 10-01-2011 00:00:00 0.7175 C 4.39 g/m*3 0.72 C 0 km/h
11 11-01-2011 00:00:00 3.43667 C 4.81 g/m*3 3.44 C 0 km/h
12 12-01-2011 00:00:00 5.44 C 5.5 g/m*3 5.44 C 0 km/h
13 13-01-2011 00:00:00 11.80333 C 8.2 g/m*3 11.8 C 0 km/h
14 14-01-2011 00:00:00 11.77417 C 6.94 g/m*3 11.77 C 0 km/h
15 15-01-2011 00:00:00 8.68167 C 5.98 g/m*3 8.68 C 0 km/h
16 16-01-2011 00:00:00 6.84167 C 5.88 g/m*3 6.84 C 0 km/h
17 17-01-2011 00:00:00 3.62917 C 5.41 g/m*3 3.63 C 0 km/h
18 18-01-2011 00:00:00 7.28833 C 6.01 g/m*3 7.29 C 0 km/h
19 19-01-2011 00:00:00 3.30833 C 4.71 g/m*3 3.31 C 0 km/h
20 20-01-2011 00:00:00 1.7 C 4.36 g/m*3 1.7 C 0 km/h
21 21-01-2011 00:00:00 -0.0675 C 3.06 g/m*3 -0.07 C 0 km/h
22 22-01-2011 00:00:00 0.39664 C 3.9 g/m*3 0.4 C 0 km/h
23 23-01-2011 00:00:00 1.50167 C 4.65 g/m*3 1.5 C 0 km/h
24 24-01-2011 00:00:00 3.10167 C 5.07 g/m*3 3.1 C 0 km/h
25 25-01-2011 00:00:00 2.49833 C 4.56 g/m*3 2.5 C 0 km/h
Sensor: Nr:Datum:Temp:Abs-Feuchte:Windchill:Wind:
Aussen-T/F 26 26-01-2011 00:00:00 0.84083 C 4.26 g/m*3 0.84 C 0 km/h
27 27-01-2011 00:00:00 -0.28583 C 3.4 g/m*3 -0.29 C 0 km/h
28 28-01-2011 00:00:00 -1.27083 C 2.87 g/m*3 -1.27 C 0 km/h
29 29-01-2011 00:00:00 -4.9 C 2.7 g/m*3 -4.9 C 0 km/h
30 30-01-2011 00:00:00 -6.20917 C 2.48 g/m*3 -6.21 C 0 km/h
31 31-01-2011 00:00:00 -5.73833 C 2.59 g/m*3 -5.74 C 0 km/h
32 01-02-2011 00:00:00 -4.03917 C 2.66 g/m*3 -4.04 C 0 km/h
33 02-02-2011 00:00:00 -0.865 C 3.47 g/m*3 -0.87 C 0 km/h
34 03-02-2011 00:00:00 1.94454 C 4.48 g/m*3 1.94 C 0 km/h
35 04-02-2011 00:00:00 6.18583 C 5.15 g/m*3 6.19 C 0 km/h
36 05-02-2011 00:00:00 9.25833 C 5.56 g/m*3 9.26 C 0 km/h
37 06-02-2011 00:00:00 8.62 C 5.16 g/m*3 8.62 C 0 km/h
38 07-02-2011 00:00:00 6.48083 C 4.13 g/m*3 6.48 C 0 km/h
39 08-02-2011 00:00:00 5.48833 C 4.56 g/m*3 5.49 C 0 km/h
40 09-02-2011 00:00:00 -0.23333 C 3.95 g/m*3 -0.23 C 0 km/h
41 10-02-2011 00:00:00 3.9425 C 4.99 g/m*3 3.94 C 0 km/h
42 11-02-2011 00:00:00 10.23917 C 7.08 g/m*3 10.24 C 0 km/h
43 12-02-2011 00:00:00 6.88 C 6.26 g/m*3 6.88 C 0 km/h
44 13-02-2011 00:00:00 5.13417 C 5.66 g/m*3 5.13 C 0 km/h
45 14-02-2011 00:00:00 5.215 C 5.63 g/m*3 5.22 C 0 km/h
46 15-02-2011 00:00:00 5.14958 C 5.71 g/m*3 5.15 C 0 km/h
47 16-02-2011 00:00:00 4.90417 C 5.38 g/m*3 4.9 C 0 km/h
48 17-02-2011 00:00:00 1.96333 C 4.29 g/m*3 1.96 C 0 km/h
49 18-02-2011 00:00:00 2.23667 C 4.1 g/m*3 2.24 C 0 km/h
50 19-02-2011 00:00:00 2.82833 C 4.31 g/m*3 2.83 C 0 km/h
Sensor: Nr:Datum:Temp:Abs-Feuchte:Windchill:Wind:
Aussen-T/F 51 20-02-2011 00:00:00 0.7 C 3.16 g/m*3 0.7 C 0 km/h
52 21-02-2011 00:00:00 -1.8125 C 2.2 g/m*3 -1.81 C 0 km/h
53 22-02-2011 00:00:00 -3.39167 C 1.99 g/m*3 -3.39 C 0 km/h
54 23-02-2011 00:00:00 -2.66583 C 2.02 g/m*3 -2.67 C 0 km/h
55 24-02-2011 00:00:00 0.91083 C 3.9 g/m*3 0.91 C 0 km/h
56 25-02-2011 00:00:00 3.445 C 5.16 g/m*3 3.45 C 0 km/h
57 26-02-2011 00:00:00 5.07167 C 5.18 g/m*3 5.07 C 0 km/h
58 27-02-2011 00:00:00 5.47731 C 5.17 g/m*3 5.48 C 0 km/h
59 28-02-2011 00:00:00 4.52333 C 4.47 g/m*3 4.52 C 0 km/h
60 01-03-2011 00:00:00 4.31167 C 4.54 g/m*3 4.31 C 0 km/h
61 02-03-2011 00:00:00 3.41 C 3.07 g/m*3 3.41 C 0 km/h
62 03-03-2011 00:00:00 1.585 C 2.66 g/m*3 1.59 C 0 km/h
63 04-03-2011 00:00:00 2.1825 C 3.4 g/m*3 2.18 C 0 km/h
64 05-03-2011 00:00:00 0.19833 C 3.69 g/m*3 0.2 C 0 km/h
65 06-03-2011 00:00:00 1.7325 C 3.29 g/m*3 1.73 C 0 km/h
66 07-03-2011 00:00:00 1.05667 C 2.45 g/m*3 1.06 C 0 km/h
67 08-03-2011 00:00:00 1.92583 C 2.89 g/m*3 1.93 C 0 km/h
68 09-03-2011 00:00:00 6.48333 C 4.63 g/m*3 6.48 C 0 km/h
69 10-03-2011 00:00:00 7.3 C 4.55 g/m*3 7.3 C 0 km/h
70 11-03-2011 00:00:00 8.78571 C 4.65 g/m*3 8.79 C 0 km/h
71 12-03-2011 00:00:00 7.3525 C 4.83 g/m*3 7.35 C 0 km/h
72 13-03-2011 00:00:00 11.07917 C 6.51 g/m*3 11.08 C 0 km/h
73 14-03-2011 00:00:00 10.09917 C 7.33 g/m*3 10.1 C 0 km/h
74 15-03-2011 00:00:00 10.73917 C 6.79 g/m*3 10.74 C 0 km/h
75 16-03-2011 00:00:00 8.73583 C 5.74 g/m*3 8.74 C 0 km/h
Sensor: Nr:Datum:Temp:Abs-Feuchte:Windchill:Wind:
Aussen-T/F 76 17-03-2011 00:00:00 6.295 C 5.87 g/m*3 6.3 C 0 km/h
77 18-03-2011 00:00:00 6.41833 C 5.24 g/m*3 6.42 C 0 km/h
78 19-03-2011 00:00:00 6.63 C 4.93 g/m*3 6.63 C 0 km/h
79 20-03-2011 00:00:00 3.39167 C 3.78 g/m*3 3.39 C 0 km/h
80 21-03-2011 00:00:00 4.66333 C 3.99 g/m*3 4.66 C 0 km/h
81 22-03-2011 00:00:00 6.83333 C 4.54 g/m*3 6.83 C 0 km/h
82 23-03-2011 00:00:00 8.59333 C 5.59 g/m*3 8.59 C 0 km/h
83 24-03-2011 00:00:00 9.14417 C 5.42 g/m*3 9.14 C 0 km/h
84 25-03-2011 00:00:00 9.65798 C 5.14 g/m*3 9.66 C 0 km/h
85 26-03-2011 00:00:00 8.11917 C 4.97 g/m*3 8.12 C 0 km/h
86 27-03-2011 00:00:00 9.62174 C 4.9 g/m*3 9.62 C 0 km/h
87 28-03-2011 00:00:00 7.7225 C 4.66 g/m*3 7.72 C 0 km/h
88 29-03-2011 00:00:00 7.42083 C 4.65 g/m*3 7.42 C 0 km/h
89 30-03-2011 00:00:00 8.36333 C 5.61 g/m*3 8.36 C 0 km/h
90 31-03-2011 00:00:00 12.03833 C 7.81 g/m*3 12.04 C 0 km/h
91 01-04-2011 00:00:00 13.985 C 8.25 g/m*3 13.99 C 0 km/h
92 02-04-2011 00:00:00 14.21833 C 8.12 g/m*3 14.22 C 0 km/h
93 03-04-2011 00:00:00 11.81167 C 8.04 g/m*3 11.81 C 0 km/h
94 04-04-2011 00:00:00 10.68333 C 6.57 g/m*3 10.68 C 0 km/h
95 05-04-2011 00:00:00 9.30833 C 6.12 g/m*3 9.31 C 0 km/h
96 06-04-2011 00:00:00 15.69167 C 8.48 g/m*3 15.69 C 0 km/h
97 07-04-2011 00:00:00 16.35294 C 8.33 g/m*3 16.35 C 0 km/h
98 08-04-2011 00:00:00 13.4925 C 6.55 g/m*3 13.49 C 0 km/h
99 09-04-2011 00:00:00 12.96917 C 5.63 g/m*3 12.97 C 0 km/h
100 10-04-2011 00:00:00 12.2825 C 6.01 g/m*3 12.28 C 0 km/h
Sensor: Nr:Datum:Temp:Abs-Feuchte:Windchill:Wind:
Aussen-T/F 101 11-04-2011 00:00:00 14.76333 C 6.76 g/m*3 14.76 C 0 km/h
102 12-04-2011 00:00:00 10.27917 C 5.45 g/m*3 10.28 C 0 km/h
103 13-04-2011 00:00:00 7.60083 C 4.45 g/m*3 7.6 C 0 km/h
104 14-04-2011 00:00:00 8.3025 C 4.49 g/m*3 8.3 C 0 km/h
105 15-04-2011 00:00:00 7.43583 C 4.66 g/m*3 7.44 C 0 km/h
106 16-04-2011 00:00:00 8.14667 C 4.58 g/m*3 8.15 C 0 km/h
107 17-04-2011 00:00:00 11.61917 C 4.82 g/m*3 11.62 C 0 km/h
108 18-04-2011 00:00:00 10.9521 C 5.51 g/m*3 10.95 C 0 km/h
109 19-04-2011 00:00:00 12.87583 C 6.2 g/m*3 12.88 C 0 km/h
110 20-04-2011 00:00:00 13.54917 C 6.5 g/m*3 13.55 C 0 km/h
111 21-04-2011 00:00:00 14.49333 C 6.84 g/m*3 14.49 C 0 km/h
112 22-04-2011 00:00:00 16.35083 C 7.67 g/m*3 16.35 C 0 km/h
113 23-04-2011 00:00:00 18.26083 C 9.25 g/m*3 18.26 C 0 km/h
114 24-04-2011 00:00:00 16.74333 C 7.71 g/m*3 16.74 C 0 km/h
115 25-04-2011 00:00:00 15.975 C 6.16 g/m*3 15.98 C 0 km/h
116 26-04-2011 00:00:00 12.8275 C 6.81 g/m*3 12.83 C 0 km/h
117 27-04-2011 00:00:00 11.27167 C 7.84 g/m*3 11.27 C 0 km/h
118 28-04-2011 00:00:00 13.99 C 8.66 g/m*3 13.99 C 0 km/h
119 29-04-2011 00:00:00 15.08333 C 8.49 g/m*3 15.08 C 0 km/h
120 30-04-2011 00:00:00 15.42 C 7.44 g/m*3 15.42 C 0 km/h
121 01-05-2011 00:00:00 15.09328 C 4.89 g/m*3 15.09 C 0 km/h
122 02-05-2011 00:00:00 11.83333 C 4.67 g/m*3 11.83 C 0 km/h
123 03-05-2011 00:00:00 10.93167 C 4.17 g/m*3 10.93 C 0 km/h
124 04-05-2011 00:00:00 8.28 C 4.54 g/m*3 8.28 C 0 km/h
125 05-05-2011 00:00:00 10.32333 C 5.35 g/m*3 10.32 C 0 km/h
Sensor: Nr:Datum:Temp:Abs-Feuchte:Windchill:Wind:
Aussen-T/F 126 06-05-2011 00:00:00 13.52917 C 6.22 g/m*3 13.53 C 0 km/h
127 07-05-2011 00:00:00 17.6125 C 7.44 g/m*3 17.61 C 0 km/h
128 08-05-2011 00:00:00 19.07167 C 6.15 g/m*3 19.07 C 0 km/h
129 09-05-2011 00:00:00 18.40083 C 6.19 g/m*3 18.4 C 0 km/h
130 10-05-2011 00:00:00 17.95833 C 7.69 g/m*3 17.96 C 0 km/h
131 11-05-2011 00:00:00 18.40667 C 9.52 g/m*3 18.41 C 0 km/h
132 12-05-2011 00:00:00 15.77833 C 7.19 g/m*3 15.78 C 0 km/h
133 13-05-2011 00:00:00 13.68403 C 6.25 g/m*3 13.68 C 0 km/h
134 14-05-2011 00:00:00 12.59917 C 5.87 g/m*3 12.6 C 0 km/h
135 15-05-2011 00:00:00 10.34333 C 6.13 g/m*3 10.34 C 0 km/h
136 16-05-2011 00:00:00 12.58667 C 6.68 g/m*3 12.59 C 0 km/h
137 17-05-2011 00:00:00 17.04083 C 7.51 g/m*3 17.04 C 0 km/h
138 18-05-2011 00:00:00 16.60583 C 7.79 g/m*3 16.61 C 0 km/h
139 19-05-2011 00:00:00 17.10833 C 9.04 g/m*3 17.11 C 0 km/h
140 20-05-2011 00:00:00 16.53 C 10.17 g/m*3 16.53 C 0 km/h
141 21-05-2011 00:00:00 19.16077 C 9.98 g/m*3 19.16 C 0 km/h
142 22-05-2011 00:00:00 16.79593 C 8.96 g/m*3 16.8 C 0 km/h
143 23-05-2011 00:00:00 16.00167 C 6.77 g/m*3 16 C 0 km/h
144 24-05-2011 00:00:00 15.90583 C 6.52 g/m*3 15.91 C 0 km/h
145 25-05-2011 00:00:00 15.29333 C 5.83 g/m*3 15.29 C 0 km/h
146 26-05-2011 00:00:00 16.04833 C 5.88 g/m*3 16.05 C 0 km/h
147 27-05-2011 00:00:00 14.61 C 5.61 g/m*3 14.61 C 0 km/h
148 28-05-2011 00:00:00 15.2875 C 6.34 g/m*3 15.29 C 0 km/h
149 29-05-2011 00:00:00 19.21849 C 6.84 g/m*3 19.22 C 0 km/h
150 30-05-2011 00:00:00 20.91333 C 8.63 g/m*3 20.91 C 0 km/h
Sensor: Nr:Datum:Temp:Abs-Feuchte:Windchill:Wind:
Aussen-T/F 151 31-05-2011 00:00:00 14.84583 C 9.06 g/m*3 14.85 C 0 km/h
152 01-06-2011 00:00:00 14.86083 C 7 g/m*3 14.86 C 0 km/h
153 02-06-2011 00:00:00 19.79167 C 7.15 g/m*3 19.79 C 0 km/h
154 03-06-2011 00:00:00 20.65583 C 6.79 g/m*3 20.66 C 0 km/h
155 04-06-2011 00:00:00 21.20417 C 10.39 g/m*3 21.2 C 0 km/h
156 05-06-2011 00:00:00 18.63333 C 12.99 g/m*3 18.63 C 0 km/h
157 06-06-2011 00:00:00 18.38667 C 11.93 g/m*3 18.39 C 0 km/h
158 07-06-2011 00:00:00 20.62417 C 10.99 g/m*3 20.62 C 0 km/h
159 08-06-2011 00:00:00 15.695 C 8.9 g/m*3 15.7 C 0 km/h
160 09-06-2011 00:00:00 14.09328 C 8.28 g/m*3 14.09 C 0 km/h
161 10-06-2011 00:00:00 14.6563 C 8.82 g/m*3 14.66 C 0 km/h
162 11-06-2011 00:00:00 15.99417 C 8.05 g/m*3 15.99 C 0 km/h
163 12-06-2011 00:00:00 15.21167 C 7.37 g/m*3 15.21 C 0 km/h
164 13-06-2011 00:00:00 16.92167 C 8.46 g/m*3 16.92 C 0 km/h
165 14-06-2011 00:00:00 20.63333 C 10.65 g/m*3 20.63 C 0 km/h
166 15-06-2011 00:00:00 19.88909 C 10.18 g/m*3 19.89 C 0 km/h
167 16-06-2011 00:00:00 15.99375 C 8.34 g/m*3 15.99 C 0 km/h
168 17-06-2011 00:00:00 15.96417 C 8.11 g/m*3 15.96 C 0 km/h
169 18-06-2011 00:00:00 15.91083 C 7.98 g/m*3 15.91 C 0 km/h
170 19-06-2011 00:00:00 14.57917 C 7.13 g/m*3 14.58 C 0 km/h
171 20-06-2011 00:00:00 13.67417 C 9.25 g/m*3 13.67 C 0 km/h
172 21-06-2011 00:00:00 19.2575 C 11.21 g/m*3 19.26 C 0 km/h
173 22-06-2011 00:00:00 18.02773 C 11.1 g/m*3 18.03 C 0 km/h
174 23-06-2011 00:00:00 16.265 C 8.2 g/m*3 16.27 C 0 km/h
175 24-06-2011 00:00:00 14.2775 C 7.18 g/m*3 14.28 C 0 km/h
Sensor: Nr:Datum:Temp:Abs-Feuchte:Windchill:Wind:
Aussen-T/F 176 25-06-2011 00:00:00 13.42417 C 9.02 g/m*3 13.42 C 0 km/h
177 26-06-2011 00:00:00 15 C 10.26 g/m*3 15 C 0 km/h
178 27-06-2011 00:00:00 17.65667 C 10.91 g/m*3 17.66 C 0 km/h
179 28-06-2011 00:00:00 25.33167 C 11.62 g/m*3 25.33 C 0 km/h
180 29-06-2011 00:00:00 20.62 C 11.48 g/m*3 20.62 C 0 km/h
181 30-06-2011 00:00:00 17.92833 C 7.15 g/m*3 17.93 C 0 km/h
182 01-07-2011 00:00:00 15.115 C 8.01 g/m*3 15.12 C 0 km/h
183 02-07-2011 00:00:00 14.5975 C 7.11 g/m*3 14.6 C 0 km/h
184 03-07-2011 00:00:00 16.875 C 7.12 g/m*3 16.88 C 0 km/h
185 04-07-2011 00:00:00 16.2 C 7.58 g/m*3 16.2 C 0 km/h
186 05-07-2011 00:00:00 24.435 C 9.98 g/m*3 24.44 C 0 km/h
187 06-07-2011 00:00:00 20.39333 C 9.1 g/m*3 20.39 C 0 km/h
188 07-07-2011 00:00:00 19.52083 C 8.94 g/m*3 19.52 C 0 km/h
189 08-07-2011 00:00:00 19.92333 C 8.54 g/m*3 19.92 C 0 km/h
190 09-07-2011 00:00:00 21.28083 C 8.6 g/m*3 21.28 C 0 km/h
191 10-07-2011 00:00:00 18.22833 C 9.4 g/m*3 18.23 C 0 km/h
192 11-07-2011 00:00:00 20.90417 C 10.03 g/m*3 20.9 C 0 km/h
193 12-07-2011 00:00:00 19.89917 C 10.56 g/m*3 19.9 C 0 km/h
194 13-07-2011 00:00:00 15.985 C 10.63 g/m*3 15.99 C 0 km/h
195 14-07-2011 00:00:00 15.70417 C 6.99 g/m*3 15.7 C 0 km/h
196 15-07-2011 00:00:00 18.7025 C 6.71 g/m*3 18.7 C 0 km/h
197 16-07-2011 00:00:00 18.92269 C 7.49 g/m*3 18.92 C 0 km/h
198 17-07-2011 00:00:00 17.68667 C 9.94 g/m*3 17.69 C 0 km/h
199 18-07-2011 00:00:00 16.98583 C 8.21 g/m*3 16.99 C 0 km/h
200 19-07-2011 00:00:00 16.52167 C 9.22 g/m*3 16.52 C 0 km/h
Sensor: Nr:Datum:Temp:Abs-Feuchte:Windchill:Wind:
Aussen-T/F 201 20-07-2011 00:00:00 15.91917 C 10.35 g/m*3 15.92 C 0 km/h
202 21-07-2011 00:00:00 16.59583 C 10.82 g/m*3 16.6 C 0 km/h
203 22-07-2011 00:00:00 16.87083 C 8.36 g/m*3 16.87 C 0 km/h
204 23-07-2011 00:00:00 13.94417 C 7.47 g/m*3 13.94 C 0 km/h
205 24-07-2011 00:00:00 12.63083 C 8.38 g/m*3 12.63 C 0 km/h
206 25-07-2011 00:00:00 16.39417 C 8.85 g/m*3 16.39 C 0 km/h
207 26-07-2011 00:00:00 16.5375 C 10.33 g/m*3 16.54 C 0 km/h
208 27-07-2011 00:00:00 17.045 C 11.16 g/m*3 17.05 C 0 km/h
209 28-07-2011 00:00:00 18.71345 C 11.5 g/m*3 18.71 C 0 km/h
210 29-07-2011 00:00:00 17.87583 C 9.99 g/m*3 17.88 C 0 km/h
211 30-07-2011 00:00:00 15.04833 C 8.6 g/m*3 15.05 C 0 km/h
212 31-07-2011 00:00:00 15.27667 C 7.67 g/m*3 15.28 C 0 km/h
213 01-08-2011 00:00:00 16.885 C 8.98 g/m*3 16.89 C 0 km/h
214 02-08-2011 00:00:00 20.45917 C 10.66 g/m*3 20.46 C 0 km/h
215 03-08-2011 00:00:00 19.3425 C 12.45 g/m*3 19.34 C 0 km/h
216 04-08-2011 00:00:00 21.59083 C 12.52 g/m*3 21.59 C 0 km/h
217 05-08-2011 00:00:00 22.10417 C 12.9 g/m*3 22.1 C 0 km/h
218 06-08-2011 00:00:00 19.43333 C 13.51 g/m*3 19.43 C 0 km/h
219 07-08-2011 00:00:00 17.99583 C 9.29 g/m*3 18 C 0 km/h
220 08-08-2011 00:00:00 15.61 C 8.66 g/m*3 15.61 C 0 km/h
221 09-08-2011 00:00:00 15.21177 C 8.52 g/m*3 15.21 C 0 km/h
222 10-08-2011 00:00:00 11.545 C 7.33 g/m*3 11.55 C 0 km/h
223 11-08-2011 00:00:00 15.27417 C 7.81 g/m*3 15.27 C 0 km/h
224 12-08-2011 00:00:00 17.7625 C 10.87 g/m*3 17.76 C 0 km/h
225 13-08-2011 00:00:00 19.08833 C 11.8 g/m*3 19.09 C 0 km/h
Sensor: Nr:Datum:Temp:Abs-Feuchte:Windchill:Wind:
Aussen-T/F 226 14-08-2011 00:00:00 18.79167 C 12.74 g/m*3 18.79 C 0 km/h
227 15-08-2011 00:00:00 19.07917 C 10.51 g/m*3 19.08 C 0 km/h
228 16-08-2011 00:00:00 18.73083 C 9.69 g/m*3 18.73 C 0 km/h
229 17-08-2011 00:00:00 18.89 C 10.72 g/m*3 18.89 C 0 km/h
230 18-08-2011 00:00:00 22.63167 C 12.33 g/m*3 22.63 C 0 km/h
231 19-08-2011 00:00:00 19.24667 C 11.36 g/m*3 19.25 C 0 km/h
232 20-08-2011 00:00:00 18.59833 C 10.46 g/m*3 18.6 C 0 km/h
233 21-08-2011 00:00:00 20.63583 C 12.38 g/m*3 20.64 C 0 km/h
234 22-08-2011 00:00:00 23.83613 C 13.38 g/m*3 23.84 C 0 km/h
235 23-08-2011 00:00:00 23.46583 C 12.87 g/m*3 23.47 C 0 km/h
236 24-08-2011 00:00:00 20.97833 C 12.32 g/m*3 20.98 C 0 km/h
237 25-08-2011 00:00:00 20.68833 C 12.56 g/m*3 20.69 C 0 km/h
238 26-08-2011 00:00:00 20.87 C 13.51 g/m*3 20.87 C 0 km/h
239 27-08-2011 00:00:00 15.035 C 9.87 g/m*3 15.04 C 0 km/h
240 28-08-2011 00:00:00 15.25583 C 8.29 g/m*3 15.26 C 0 km/h
241 29-08-2011 00:00:00 14.68667 C 7.47 g/m*3 14.69 C 0 km/h
242 30-08-2011 00:00:00 12.15833 C 7.48 g/m*3 12.16 C 0 km/h
243 31-08-2011 00:00:00 13.1325 C 7.9 g/m*3 13.13 C 0 km/h
244 01-09-2011 00:00:00 15.16083 C 8.72 g/m*3 15.16 C 0 km/h
245 02-09-2011 00:00:00 17.55667 C 10.68 g/m*3 17.56 C 0 km/h
246 03-09-2011 00:00:00 20.71597 C 12.56 g/m*3 20.72 C 0 km/h
247 04-09-2011 00:00:00 21.65833 C 12.72 g/m*3 21.66 C 0 km/h
248 05-09-2011 00:00:00 17.79667 C 7.96 g/m*3 17.8 C 0 km/h
249 06-09-2011 00:00:00 15.93333 C 7.85 g/m*3 15.93 C 0 km/h
250 07-09-2011 00:00:00 16.43 C 7.86 g/m*3 16.43 C 0 km/h
Sensor: Nr:Datum:Temp:Abs-Feuchte:Windchill:Wind:
Aussen-T/F 251 08-09-2011 00:00:00 15.3775 C 7.81 g/m*3 15.38 C 0 km/h
252 09-09-2011 00:00:00 18.46 C 11.77 g/m*3 18.46 C 0 km/h
253 10-09-2011 00:00:00 21.15667 C 14.36 g/m*3 21.16 C 0 km/h
254 11-09-2011 00:00:00 17.895 C 12.4 g/m*3 17.9 C 0 km/h
255 12-09-2011 00:00:00 17.43583 C 10.22 g/m*3 17.44 C 0 km/h
256 13-09-2011 00:00:00 18.005 C 10.27 g/m*3 18.01 C 0 km/h
257 14-09-2011 00:00:00 14.43917 C 7.46 g/m*3 14.44 C 0 km/h
258 15-09-2011 00:00:00 13.91583 C 7.97 g/m*3 13.92 C 0 km/h
259 16-09-2011 00:00:00 12.79667 C 8.83 g/m*3 12.8 C 0 km/h
260 17-09-2011 00:00:00 16.78824 C 9.66 g/m*3 16.79 C 0 km/h
261 18-09-2011 00:00:00 12.7625 C 8.18 g/m*3 12.76 C 0 km/h
262 19-09-2011 00:00:00 12.76833 C 7.68 g/m*3 12.77 C 0 km/h
263 20-09-2011 00:00:00 12.41333 C 8.1 g/m*3 12.41 C 0 km/h
264 21-09-2011 00:00:00 13.775 C 8.34 g/m*3 13.78 C 0 km/h
265 22-09-2011 00:00:00 15.79167 C 7.98 g/m*3 15.79 C 0 km/h
266 23-09-2011 00:00:00 14.20917 C 7.92 g/m*3 14.21 C 0 km/h
267 24-09-2011 00:00:00 12.8025 C 8.32 g/m*3 12.8 C 0 km/h
268 25-09-2011 00:00:00 14.1125 C 9.33 g/m*3 14.11 C 0 km/h
269 26-09-2011 00:00:00 15.74917 C 10.22 g/m*3 15.75 C 0 km/h
270 27-09-2011 00:00:00 17.1525 C 10.93 g/m*3 17.15 C 0 km/h
271 28-09-2011 00:00:00 16.71 C 11.03 g/m*3 16.71 C 0 km/h
272 29-09-2011 00:00:00 16.13167 C 10.33 g/m*3 16.13 C 0 km/h
273 30-09-2011 00:00:00 14.48824 C 9.37 g/m*3 14.49 C 0 km/h
274 01-10-2011 00:00:00 14.3525 C 9.54 g/m*3 14.35 C 0 km/h
275 02-10-2011 00:00:00 14.74 C 9.74 g/m*3 14.74 C 0 km/h
Sensor: Nr:Datum:Temp:Abs-Feuchte:Windchill:Wind:
Aussen-T/F 276 03-10-2011 00:00:00 15.125 C 9.75 g/m*3 15.13 C 0 km/h
277 04-10-2011 00:00:00 16.96167 C 9.11 g/m*3 16.96 C 0 km/h
278 05-10-2011 00:00:00 17.94667 C 9.13 g/m*3 17.95 C 0 km/h
279 06-10-2011 00:00:00 14.175 C 8.46 g/m*3 14.18 C 0 km/h
280 07-10-2011 00:00:00 9.92583 C 6.22 g/m*3 9.93 C 0 km/h
281 08-10-2011 00:00:00 9.01167 C 6.47 g/m*3 9.01 C 0 km/h
282 09-10-2011 00:00:00 9.11667 C 7.02 g/m*3 9.12 C 0 km/h
283 10-10-2011 00:00:00 16.5475 C 9.61 g/m*3 16.55 C 0 km/h
284 11-10-2011 00:00:00 16.37917 C 8.72 g/m*3 16.38 C 0 km/h
285 12-10-2011 00:00:00 15.74333 C 8.96 g/m*3 15.74 C 0 km/h
286 13-10-2011 00:00:00 10.145 C 6.96 g/m*3 10.15 C 0 km/h
287 14-10-2011 00:00:00 6.14286 C 5.77 g/m*3 6.14 C 0 km/h
288 15-10-2011 00:00:00 4.65417 C 5.23 g/m*3 4.65 C 0 km/h
289 16-10-2011 00:00:00 4.29833 C 5.17 g/m*3 4.3 C 0 km/h
290 17-10-2011 00:00:00 6.42917 C 6.14 g/m*3 6.43 C 0 km/h
291 18-10-2011 00:00:00 8.99833 C 7.14 g/m*3 9 C 0 km/h
292 19-10-2011 00:00:00 8.2025 C 5.92 g/m*3 8.2 C 0 km/h
293 20-10-2011 00:00:00 5.4275 C 5.58 g/m*3 5.43 C 0 km/h
294 21-10-2011 00:00:00 3.16333 C 5.27 g/m*3 3.16 C 0 km/h
295 22-10-2011 00:00:00 3.45333 C 5.04 g/m*3 3.45 C 0 km/h
296 23-10-2011 00:00:00 2.44833 C 4.92 g/m*3 2.45 C 0 km/h
297 24-10-2011 00:00:00 5.85083 C 5.45 g/m*3 5.85 C 0 km/h
298 25-10-2011 00:00:00 9.17417 C 6.55 g/m*3 9.17 C 0 km/h
299 26-10-2011 00:00:00 9.305 C 6.4 g/m*3 9.31 C 0 km/h
300 27-10-2011 00:00:00 5.69333 C 6.08 g/m*3 5.69 C 0 km/h
Sensor: Nr:Datum:Temp:Abs-Feuchte:Windchill:Wind:
Aussen-T/F 301 28-10-2011 00:00:00 8.32857 C 7.33 g/m*3 8.33 C 0 km/h
302 29-10-2011 00:00:00 10.61667 C 8.11 g/m*3 10.62 C 0 km/h
303 30-10-2011 00:00:00 12.2192 C 9.31 g/m*3 12.22 C 0 km/h
304 31-10-2011 00:00:00 11.39 C 8.86 g/m*3 11.39 C 0 km/h
305 01-11-2011 00:00:00 9.17333 C 7.52 g/m*3 9.17 C 0 km/h
306 02-11-2011 00:00:00 10.59667 C 7.89 g/m*3 10.6 C 0 km/h
307 03-11-2011 00:00:00 11.35583 C 7.36 g/m*3 11.36 C 0 km/h
308 04-11-2011 00:00:00 10.15333 C 7.6 g/m*3 10.15 C 0 km/h
309 05-11-2011 00:00:00 10.31333 C 7.32 g/m*3 10.31 C 0 km/h
310 06-11-2011 00:00:00 8.90583 C 7.36 g/m*3 8.91 C 0 km/h
311 07-11-2011 00:00:00 8.85 C 7.07 g/m*3 8.85 C 0 km/h
312 08-11-2011 00:00:00 5.84583 C 6.28 g/m*3 5.85 C 0 km/h
313 09-11-2011 00:00:00 6.5025 C 6.49 g/m*3 6.5 C 0 km/h
314 10-11-2011 00:00:00 6.29328 C 6.04 g/m*3 6.29 C 0 km/h
315 11-11-2011 00:00:00 6.25417 C 5.61 g/m*3 6.25 C 0 km/h
316 12-11-2011 00:00:00 4.20083 C 5.31 g/m*3 4.2 C 0 km/h
317 13-11-2011 00:00:00 4.15833 C 5.51 g/m*3 4.16 C 0 km/h
318 14-11-2011 00:00:00 0.35917 C 4.59 g/m*3 0.36 C 0 km/h
319 15-11-2011 00:00:00 0.25583 C 4.55 g/m*3 0.26 C 0 km/h
320 16-11-2011 00:00:00 -1.28871 C 4.06 g/m*3 -1.29 C 0 km/h
321 17-11-2011 00:00:00 3.935 C 5.08 g/m*3 3.94 C 0 km/h
322 18-11-2011 00:00:00 7.49833 C 6.7 g/m*3 7.5 C 0 km/h
323 19-11-2011 00:00:00 5.435 C 6.26 g/m*3 5.44 C 0 km/h
324 20-11-2011 00:00:00 6.58083 C 6.06 g/m*3 6.58 C 0 km/h
325 21-11-2011 00:00:00 1.40917 C 4.92 g/m*3 1.41 C 0 km/h
Sensor: Nr:Datum:Temp:Abs-Feuchte:Windchill:Wind:
Aussen-T/F 326 22-11-2011 00:00:00 1.14083 C 4.83 g/m*3 1.14 C 0 km/h
327 23-11-2011 00:00:00 1.59583 C 5.02 g/m*3 1.6 C 0 km/h
328 24-11-2011 00:00:00 2.37083 C 5.25 g/m*3 2.37 C 0 km/h
329 25-11-2011 00:00:00 1.0775 C 4.47 g/m*3 1.08 C 0 km/h
330 26-11-2011 00:00:00 6.25167 C 5.54 g/m*3 6.25 C 0 km/h
331 27-11-2011 00:00:00 7.40833 C 5.63 g/m*3 7.41 C 0 km/h
332 28-11-2011 00:00:00 0.83833 C 4.74 g/m*3 0.84 C 0 km/h
333 29-11-2011 00:00:00 1.88167 C 4.94 g/m*3 1.88 C 0 km/h
334 30-11-2011 00:00:00 4.85083 C 5.78 g/m*3 4.85 C 0 km/h
335 01-12-2011 00:00:00 5.47459 C 6.17 g/m*3 5.47 C 0 km/h
336 02-12-2011 00:00:00 7.12667 C 6.07 g/m*3 7.13 C 0 km/h
337 03-12-2011 00:00:00 6.26583 C 5.67 g/m*3 6.27 C 0 km/h
338 04-12-2011 00:00:00 8.2975 C 6.82 g/m*3 8.3 C 0 km/h
339 05-12-2011 00:00:00 4.38417 C 4.68 g/m*3 4.38 C 0 km/h
340 06-12-2011 00:00:00 4.445 C 4.4 g/m*3 4.45 C 0 km/h
341 07-12-2011 00:00:00 5.57833 C 5 g/m*3 5.58 C 0 km/h
342 08-12-2011 00:00:00 6.22333 C 4.58 g/m*3 6.22 C 0 km/h
343 09-12-2011 00:00:00 5.94583 C 5.15 g/m*3 5.95 C 0 km/h
344 10-12-2011 00:00:00 1.885 C 4.22 g/m*3 1.89 C 0 km/h
345 11-12-2011 00:00:00 0.43667 C 4.15 g/m*3 0.44 C 0 km/h
346 12-12-2011 00:00:00 5.94754 C 5.56 g/m*3 5.95 C 0 km/h
347 13-12-2011 00:00:00 6.86417 C 5.29 g/m*3 6.86 C 0 km/h
348 14-12-2011 00:00:00 6.68371 C 6.1 g/m*3 4.39 C 11.45758 km/h
349 15-12-2011 00:00:00 6.13646 C 5.7 g/m*3 3.9 C 10.55208 km/h
350 16-12-2011 00:00:00 6.07222 C 6.06 g/m*3 3.54 C 12.08819 km/h
Sensor: Nr:Datum:Temp:Abs-Feuchte:Windchill:Wind:
Aussen-T/F 351 17-12-2011 00:00:00 3.63507 C 5.26 g/m*3 1.48 C 8.17431 km/h
352 18-12-2011 00:00:00 2.25764 C 4.91 g/m*3 0.33 C 6.6875 km/h
353 19-12-2011 00:00:00 1.70208 C 4.69 g/m*3 1.7 C 4.33715 km/h
354 20-12-2011 00:00:00 2.28715 C 5.15 g/m*3 2.29 C 4.2434 km/h
355 21-12-2011 00:00:00 4.19792 C 5.66 g/m*3 2.64 C 6.47639 km/h
356 22-12-2011 00:00:00 6.57917 C 7.14 g/m*3 6.58 C 3.52847 km/h
357 23-12-2011 00:00:00 8.41806 C 7.71 g/m*3 8.42 C 4.81424 km/h
358 24-12-2011 00:00:00 5.63368 C 5.92 g/m*3 3.43 C 9.91007 km/h
359 25-12-2011 00:00:00 5.68472 C 6.14 g/m*3 3.52 C 9.78507 km/h
360 26-12-2011 00:00:00 8.12222 C 7.46 g/m*3 6.74 C 8.26389 km/h
361 27-12-2011 00:00:00 8.25139 C 7.48 g/m*3 8.25 C 2.92604 km/h
362 28-12-2011 00:00:00 5.71424 C 6.17 g/m*3 4.17 C 7.23854 km/h
363 29-12-2011 00:00:00 5.51667 C 5.66 g/m*3 2.84 C 12.22257 km/h
364 30-12-2011 00:00:00 4.24861 C 5.39 g/m*3 1.73 C 10.11736 km/h
365 31-12-2011 00:00:00 5.15729 C 6.43 g/m*3 5.16 C 3.01632 km/h

Maximal/Minimal-Werte vom 01.01.2011 - 31.12.2011

Sensor Min Max Avg
Temp
(Aussen-T/F)
-9.5 °C
23-02-2011  06:31:05
35.7 °C
28-06-2011  17:17:37
10.49 °C
Abs-Feuchte
(Aussen-T/F)
1.99 g/m*3
22-02-2011  00:00:00
14.36 g/m*3
10-09-2011  00:00:00
7.06 g/m*3
Windchill
(Aussen-T/F)
-6.21 C
30-01-2011  00:00:00
25.33 C
28-06-2011  00:00:00
10.78 C

Die Daten stammen von einer Davis Vantage Pro 2 Wetter-Station und werden unter Linux mit der Software wview2wettercgi und aufbereitet. Alle Angaben erfolgen ohne Gewähr für ihre Vollständigkeit oder Richtigkeit.
Kontakt: Rainer Krienke krienke@uni-koblenz.de . Meine Webseiten an der Uni Koblenz oder privat.
Version: $Revision: 0.78 $